KAEX/AEX METAR and TAF weather

Enter ICAO airport designator
Station Type Date Time Source
KAEX METAR 2020/04/05 19:53 UTC NOAA

KAEX 051953Z VRB03KT 10SM CLR 25/14 A3001 RMK AO2 SLP164 T02500144


Station Type Date Time Source
KAEX Decoded METAR 2020/04/05 19:53 UTC NOAA

ALEXANDRIA INTERNATIONAL AIRPORT, LA, United States (KAEX) 31-33N 092-56W 27M
Apr 05, 2020 - 03:53 PM EDT / 2020.04.05 1953 UTC
Wind: Variable at 3 MPH (3 KT):0
Visibility: 10 mile(s):0
Sky conditions: clear
Temperature: 77.0 F (25.0 C)
Dew Point: 57.9 F (14.4 C)
Relative Humidity: 51%
Pressure (altimeter): 30.01 in. Hg (1016 hPa)
ob: KAEX 051953Z VRB03KT 10SM CLR 25/14 A3001 RMK AO2 SLP164 T02500144
cycle: 20

Station Type Date Time Source
KAEX TAF 2020/04/05 18:22 UTC NOAA

TAF KAEX 051720Z 0518/0618 05005KT P6SM SCT025
FM052000 05005KT P6SM SCT035
FM060100 VRB03KT P6SM SCT250
FM061400 12004KT P6SM SCT015

Example: see airport list